Time;durP1;ratioP1;P1;durP2;ratioP2;P2;SDS_P1;SDS_P2;PMS_P1;PMS_P2;Temp;Humidity;BMP_temperature;BMP_pressure;BME280_temperature;BME280_humidity;BME280_pressure;Samples;Min_cycle;Max_cycle;Signal;HPM_P1;HPM_P2
2021/12/14 00:00:50;;;;;;;26.52;17.48;;;;;;;5.48;90.51;99931.19;6199376;23;20008;-82
2021/12/14 00:03:18;;;;;;;26.65;17.10;;;;;;;5.49;90.48;99931.00;6198461;23;20028;-83
2021/12/14 00:05:44;;;;;;;24.20;16.83;;;;;;;5.49;90.34;99923.06;6172217;23;20090;-83
2021/12/14 00:08:13;;;;;;;24.77;16.42;;;;;;;5.47;90.74;99919.78;6198486;23;20001;-83
2021/12/14 00:10:50;;;;;;;26.25;16.38;;;;;;;5.50;90.59;99922.06;6198407;23;20011;-82
2021/12/14 00:15:52;;;;;;;27.40;17.60;;;;;;;5.37;90.53;99899.94;6153845;23;20013;-82
2021/12/14 00:18:19;;;;;;;26.17;17.17;;;;;;;5.50;90.40;99919.41;6175268;23;20001;-82
2021/12/14 00:20:59;;;;;;;27.67;16.73;;;;;;;5.50;90.86;99914.13;6173643;23;20012;-83
2021/12/14 00:26:16;;;;;;;27.25;17.27;;;;;;;5.49;90.46;99906.34;6198527;23;20112;-82
2021/12/14 00:28:42;;;;;;;25.10;17.23;;;;;;;5.42;90.27;99905.47;6200870;23;20057;-83
2021/12/14 00:31:13;;;;;;;24.70;16.02;;;;;;;5.48;90.01;99920.59;6172262;23;20033;-82
2021/12/14 00:33:42;;;;;;;25.33;16.65;;;;;;;5.48;90.02;99913.50;6166004;23;20001;-82
2021/12/14 00:36:09;;;;;;;23.27;15.90;;;;;;;5.47;90.77;99911.00;6124518;23;20009;-82
2021/12/14 00:38:36;;;;;;;25.08;15.82;;;;;;;5.29;89.90;99891.09;6171029;23;20005;-82
2021/12/14 00:41:10;;;;;;;24.30;15.57;;;;;;;5.49;90.63;99914.28;6144741;23;20013;-83
2021/12/14 00:43:35;;;;;;;25.77;16.95;;;;;;;5.48;90.54;99915.31;6142282;23;20039;-83
2021/12/14 00:46:01;;;;;;;28.10;17.45;;;;;;;5.32;90.48;99890.72;6168040;23;20005;-83
2021/12/14 00:48:27;;;;;;;27.52;17.27;;;;;;;5.48;90.64;99910.84;6142012;23;20009;-82
2021/12/14 00:50:57;;;;;;;26.13;16.80;;;;;;;5.47;90.30;99914.47;6166923;23;20009;-82
2021/12/14 00:53:23;;;;;;;26.52;17.48;;;;;;;5.48;90.01;99918.78;6165849;23;20051;-81
2021/12/14 00:55:51;;;;;;;28.23;18.10;;;;;;;5.37;90.34;99897.28;6193746;23;20009;-82
2021/12/14 00:58:18;;;;;;;27.13;17.23;;;;;;;5.36;90.07;99892.97;6118439;23;20451;-81
2021/12/14 01:00:55;;;;;;;27.52;17.50;;;;;;;5.47;90.07;99922.44;6168451;23;20458;-84
2021/12/14 01:03:22;;;;;;;27.25;17.60;;;;;;;5.48;90.12;99916.13;6165801;23;20069;-83
2021/12/14 01:05:49;;;;;;;25.98;16.60;;;;;;;5.39;90.06;99908.50;6190129;23;20003;-84
2021/12/14 01:08:19;;;;;;;25.65;15.95;;;;;;;5.49;90.20;99916.94;6165255;23;20009;-83
2021/12/14 01:10:55;;;;;;;25.75;16.83;;;;;;;5.39;90.18;99909.31;6141858;23;20432;-84
2021/12/14 01:13:28;;;;;;;22.08;15.60;;;;;;;5.24;89.72;99882.88;6167692;23;20613;-85
2021/12/14 01:16:31;;;;;;;24.52;15.50;;;;;;;5.46;89.96;99927.91;6167849;23;20016;-84
2021/12/14 01:19:11;;;;;;;26.80;15.93;;;;;;;5.48;90.19;99918.78;6167264;23;20494;-84
2021/12/14 01:27:11;;;;;;;25.10;16.00;;;;;;;5.33;90.05;99897.63;6193112;23;20005;-84
2021/12/14 01:29:38;;;;;;;25.00;15.88;;;;;;;5.49;89.93;99923.06;6142275;23;20013;-83
2021/12/14 01:32:05;;;;;;;26.30;16.67;;;;;;;5.48;90.08;99918.78;6163300;23;19997;-85
2021/12/14 01:34:32;;;;;;;27.98;17.17;;;;;;;5.47;89.86;99926.88;6189565;23;19997;-83
2021/12/14 01:37:07;;;;;;;28.27;15.88;;;;;;;5.48;89.20;99925.91;6162045;23;20017;-83
2021/12/14 01:39:50;;;;;;;26.58;17.08;;;;;;;5.47;89.74;99918.94;6140024;23;20011;-84
2021/12/14 01:42:26;;;;;;;31.38;16.98;;;;;;;5.07;89.75;99855.03;6119948;23;20012;-84
2021/12/14 01:45:02;;;;;;;26.20;17.45;;;;;;;5.30;89.70;99886.63;6140973;23;20032;-83
2021/12/14 01:47:35;;;;;;;27.45;17.38;;;;;;;5.47;89.88;99917.13;6163810;23;20009;-84
2021/12/14 01:50:01;;;;;;;25.83;17.92;;;;;;;5.47;90.11;99903.06;6164823;23;20009;-83
2021/12/14 01:52:31;;;;;;;31.67;20.05;;;;;;;5.47;89.73;99903.06;6117779;23;20469;-82
2021/12/14 01:55:10;;;;;;;27.85;16.63;;;;;;;5.44;89.44;99893.66;6120632;23;20013;-83
2021/12/14 01:57:36;;;;;;;25.38;16.20;;;;;;;5.39;89.92;99882.84;6203398;23;20052;-83
2021/12/14 02:00:06;;;;;;;28.15;17.35;;;;;;;5.47;89.92;99893.31;6162147;23;19992;-84
2021/12/14 02:02:42;;;;;;;30.58;17.98;;;;;;;5.47;90.05;99893.31;6182694;23;20012;-84
2021/12/14 02:05:17;;;;;;;30.50;18.38;;;;;;;5.49;90.20;99896.56;6180594;23;20001;-84
2021/12/14 02:07:44;;;;;;;24.08;15.50;;;;;;;5.47;89.95;99898.59;6177793;23;20072;-83
2021/12/14 02:10:16;;;;;;;28.58;18.52;;;;;;;5.44;89.37;99892.88;6176679;23;20005;-82
2021/12/14 02:12:45;;;;;;;27.80;18.13;;;;;;;5.47;89.51;99893.31;6172542;23;20031;-83
2021/12/14 02:15:25;;;;;;;29.00;18.33;;;;;;;5.49;89.97;99907.16;6174278;23;19989;-83
2021/12/14 02:17:53;;;;;;;32.42;19.08;;;;;;;5.43;89.48;99901.81;6151719;23;20013;-83
2021/12/14 02:20:28;;;;;;;29.58;17.95;;;;;;;5.48;89.76;99907.38;6125924;23;20631;-82
2021/12/14 02:22:54;;;;;;;29.40;19.15;;;;;;;5.48;89.17;99905.53;6173795;23;20337;-83
2021/12/14 02:25:19;;;;;;;30.25;19.73;;;;;;;5.41;89.56;99888.78;6174788;23;20017;-82
2021/12/14 02:27:48;;;;;;;32.58;20.05;;;;;;;5.46;89.77;99896.94;6173394;23;20000;-84
2021/12/14 02:30:22;;;;;;;30.60;17.90;;;;;;;5.27;89.36;99865.81;6148929;23;20001;-83
2021/12/14 02:32:47;;;;;;;30.92;18.42;;;;;;;5.29;89.24;99848.75;6150114;23;20325;-83
2021/12/14 02:35:17;;;;;;;26.10;17.05;;;;;;;5.26;89.67;99830.59;6147877;23;20146;-84
2021/12/14 02:37:54;;;;;;;28.23;16.92;;;;;;;5.50;89.82;99858.50;6172244;23;20083;-83
2021/12/14 02:41:10;;;;;;;25.33;16.25;;;;;;;5.50;89.56;99842.63;6171855;23;20032;-84
2021/12/14 02:43:17;;;;;;;29.92;17.02;;;;;;;5.51;89.71;99844.25;6183535;23;20020;-83
2021/12/14 02:45:42;;;;;;;29.23;18.27;;;;;;;5.51;89.68;99838.13;6198354;23;20411;-83
2021/12/14 02:48:10;;;;;;;25.73;16.52;;;;;;;5.36;89.14;99817.03;6170554;23;20436;-83
2021/12/14 02:50:36;;;;;;;25.73;16.52;;;;;;;5.51;89.46;99835.47;6170207;23;20009;-83
2021/12/14 02:53:02;;;;;;;30.75;18.27;;;;;;;5.50;89.30;99832.03;6145483;23;20044;-81
2021/12/14 02:55:28;;;;;;;28.33;18.50;;;;;;;5.35;89.14;99806.66;6169296;23;20005;-83
2021/12/14 03:08:57;;;;;;;28.00;17.40;;;;;;;5.05;89.83;99768.94;6196666;23;20016;-81
2021/12/14 03:11:24;;;;;;;33.90;19.42;;;;;;;5.04;89.38;99748.78;6199680;23;20007;-82
2021/12/14 03:13:52;;;;;;;33.58;20.20;;;;;;;4.84;89.77;99710.75;6149589;23;20079;-82
2021/12/14 03:16:22;;;;;;;30.60;18.38;;;;;;;4.68;89.57;99674.00;6176073;23;20009;-83
2021/12/14 03:18:50;;;;;;;31.98;19.75;;;;;;;5.12;89.47;99730.94;6202211;23;20036;-83
2021/12/14 03:21:29;;;;;;;31.15;19.05;;;;;;;4.99;88.69;99712.31;6176671;23;20029;-84
2021/12/14 03:24:02;;;;;;;32.50;20.13;;;;;;;5.48;89.44;99788.22;6129182;23;20372;-82
2021/12/14 03:26:32;;;;;;;31.75;18.75;;;;;;;5.11;89.45;99715.28;6201761;23;20089;-81
2021/12/14 03:29:03;;;;;;;32.90;19.92;;;;;;;5.24;88.88;99736.53;6195930;23;20428;-82
2021/12/14 03:31:41;;;;;;;32.67;20.25;;;;;;;5.48;89.04;99767.03;6167760;23;20001;-82
2021/12/14 03:34:15;;;;;;;30.45;19.65;;;;;;;5.35;88.95;99730.72;6162493;23;20033;-82
2021/12/14 03:36:50;;;;;;;36.60;21.20;;;;;;;5.48;88.89;99751.16;6164120;23;20008;-82
2021/12/14 03:39:18;;;;;;;36.17;21.88;;;;;;;5.47;88.77;99752.16;6167364;23;20052;-83
2021/12/14 03:41:57;;;;;;;33.03;20.45;;;;;;;5.41;89.33;99753.75;6167414;23;20018;-82
2021/12/14 03:44:28;;;;;;;36.38;20.75;;;;;;;5.30;88.69;99728.66;6167731;23;20004;-82
2021/12/14 03:47:07;;;;;;;36.03;22.27;;;;;;;5.45;88.95;99757.66;6168719;23;20005;-83
2021/12/14 03:49:37;;;;;;;34.15;20.58;;;;;;;5.47;89.28;99752.97;6166539;23;20395;-83
2021/12/14 03:52:06;;;;;;;39.38;22.85;;;;;;;5.46;89.29;99748.69;6193921;23;20088;-82
2021/12/14 03:54:32;;;;;;;40.42;23.35;;;;;;;5.22;88.85;99717.38;6166817;23;20013;-81
2021/12/14 03:56:57;;;;;;;39.88;23.02;;;;;;;5.31;89.02;99727.63;6142257;23;20428;-83
2021/12/14 03:59:27;;;;;;;38.42;22.88;;;;;;;5.18;89.41;99703.72;6141775;23;20419;-82
2021/12/14 04:01:52;;;;;;;39.45;23.25;;;;;;;5.46;89.31;99748.69;6193758;23;20076;-82
2021/12/14 04:04:25;;;;;;;39.78;23.10;;;;;;;5.47;89.38;99755.63;6194484;23;20002;-81
2021/12/14 04:06:56;;;;;;;40.10;25.00;;;;;;;5.17;89.09;99725.06;6167031;23;20004;-82
2021/12/14 04:09:27;;;;;;;39.55;24.85;;;;;;;5.47;89.43;99768.03;6193290;23;20028;-82
2021/12/14 04:11:52;;;;;;;45.42;25.17;;;;;;;5.48;89.55;99767.03;6167394;23;20024;-81
2021/12/14 04:14:19;;;;;;;44.95;25.38;;;;;;;5.19;88.98;99737.13;6167561;23;20336;-82
2021/12/14 04:16:49;;;;;;;45.88;24.83;;;;;;;5.48;89.36;99762.56;6141728;23;20351;-83
2021/12/14 04:19:22;;;;;;;44.58;24.17;;;;;;;5.47;88.88;99766.22;6191770;23;20091;-81
2021/12/14 04:21:48;;;;;;;47.05;25.25;;;;;;;5.47;89.38;99770.69;6165540;23;20020;-81
2021/12/14 04:24:21;;;;;;;46.30;25.55;;;;;;;5.45;89.31;99772.72;6193339;23;20005;-81
2021/12/14 04:26:47;;;;;;;44.70;26.33;;;;;;;5.20;89.23;99729.97;6166353;23;20033;-82
2021/12/14 04:29:13;;;;;;;42.10;25.27;;;;;;;5.19;89.51;99733.63;6192433;23;20008;-81
2021/12/14 04:31:41;;;;;;;40.17;24.00;;;;;;;5.49;89.68;99779.25;6166627;23;20348;-81
2021/12/14 04:34:06;;;;;;;43.00;24.65;;;;;;;5.38;89.65;99764.72;6193578;23;20013;-81
2021/12/14 04:36:33;;;;;;;36.88;23.20;;;;;;;5.49;89.43;99763.38;6165009;23;20004;-82
2021/12/14 04:53:21;;;;;;;;;;;;;;;5.44;89.17;99797.56;6185149;23;20024;-85
2021/12/14 04:55:48;;;;;;;40.83;23.23;;;;;;;5.43;88.87;99794.09;6180362;23;19976;-85
2021/12/14 04:58:15;;;;;;;46.88;26.65;;;;;;;5.19;89.55;99762.75;6197878;23;20702;-84
2021/12/14 05:00:47;;;;;;;45.35;23.70;;;;;;;5.44;89.48;99798.34;6172920;23;20051;-81
2021/12/14 05:03:43;;;;;;;40.20;24.23;;;;;;;5.43;89.65;99796.75;6176733;23;20009;-81
2021/12/14 05:06:21;;;;;;;37.25;22.85;;;;;;;5.08;89.67;99740.28;6195303;23;20040;-81
2021/12/14 05:09:25;;;;;;;40.80;23.13;;;;;;;5.44;89.60;99798.34;6196902;23;20009;-82
2021/12/14 05:11:54;;;;;;;40.15;21.95;;;;;;;5.13;89.02;99751.09;6196945;23;20001;-81
2021/12/14 05:14:21;;;;;;;42.35;25.27;;;;;;;5.09;89.59;99741.06;6172813;23;20031;-82
2021/12/14 05:16:47;;;;;;;44.38;23.38;;;;;;;4.90;89.49;99704.69;6196525;23;20086;-82
2021/12/14 05:19:12;;;;;;;36.80;21.48;;;;;;;5.13;89.68;99735.22;6197668;23;20542;-82
2021/12/14 05:21:44;;;;;;;37.30;22.58;;;;;;;5.47;88.92;99789.22;6194472;23;20009;-82
2021/12/14 05:24:12;;;;;;;41.63;23.77;;;;;;;5.24;89.46;99744.47;6188687;23;20005;-81
2021/12/14 05:26:38;;;;;;;38.95;22.27;;;;;;;5.48;89.14;99783.75;6163752;23;20028;-82
2021/12/14 05:29:05;;;;;;;40.13;24.30;;;;;;;5.49;89.00;99788.03;6191244;23;20085;-82
2021/12/14 05:31:32;;;;;;;41.25;24.00;;;;;;;5.04;88.91;99725.81;6194345;23;20058;-82
2021/12/14 05:33:57;;;;;;;37.65;22.92;;;;;;;5.18;89.15;99742.56;6168015;23;20017;-82
2021/12/14 05:36:24;;;;;;;38.53;21.85;;;;;;;5.01;89.36;99722.69;6193737;23;20012;-82
2021/12/14 05:44:16;;;;;;;37.28;22.85;;;;;;;5.50;89.26;99778.25;6205558;23;20012;-82
2021/12/14 05:46:49;;;;;;;36.38;21.95;;;;;;;5.50;88.76;99775.59;6169064;23;20009;-83
2021/12/14 05:49:17;;;;;;;40.50;24.02;;;;;;;5.50;89.21;99767.66;6145416;23;20035;-83
2021/12/14 05:51:43;;;;;;;38.10;21.30;;;;;;;5.50;89.56;99763.19;6195598;23;20032;-82
2021/12/14 05:54:08;;;;;;;39.47;23.08;;;;;;;5.37;89.26;99749.88;6168592;23;20009;-83
2021/12/14 05:56:34;;;;;;;36.28;21.85;;;;;;;5.50;89.72;99767.66;6168568;23;20095;-81
2021/12/14 05:59:01;;;;;;;37.78;23.77;;;;;;;5.43;89.30;99759.69;6170358;23;20016;-84
2021/12/14 06:01:29;;;;;;;40.20;23.42;;;;;;;5.45;89.17;99762.13;6171561;23;20013;-82
2021/12/14 06:04:01;;;;;;;37.58;22.38;;;;;;;5.46;89.10;99769.06;6168629;23;20001;-82
2021/12/14 06:06:34;;;;;;;37.85;22.60;;;;;;;5.44;89.54;99771.09;6195547;23;20028;-83
2021/12/14 06:09:14;;;;;;;39.28;22.88;;;;;;;5.49;88.62;99785.38;6143958;23;20012;-82
2021/12/14 06:11:41;;;;;;;41.22;23.73;;;;;;;5.49;88.96;99780.09;6167418;23;20008;-82
2021/12/14 06:14:14;;;;;;;38.92;23.60;;;;;;;5.49;88.98;99788.03;6142657;23;20024;-84
2021/12/14 06:16:39;;;;;;;40.53;24.27;;;;;;;5.30;88.67;99752.47;6191581;23;20012;-82
2021/12/14 06:19:25;;;;;;;35.85;21.52;;;;;;;5.47;89.08;99781.28;6193810;23;20384;-82
2021/12/14 06:22:07;;;;;;;37.40;22.40;;;;;;;5.47;89.09;99792.69;6166860;23;20005;-82
2021/12/14 06:24:35;;;;;;;38.65;22.23;;;;;;;5.47;88.67;99786.56;6166654;23;20059;-82
2021/12/14 06:27:05;;;;;;;41.33;23.98;;;;;;;5.33;88.80;99764.47;6191201;23;20480;-83
2021/12/14 06:29:44;;;;;;;35.40;23.02;;;;;;;5.46;89.25;99780.44;6164983;23;20036;-84
2021/12/14 06:32:13;;;;;;;39.10;24.55;;;;;;;5.46;89.32;99783.09;6141270;23;20009;-82
2021/12/14 06:34:49;;;;;;;43.08;24.50;;;;;;;5.46;89.34;99783.09;6166288;23;20012;-82
2021/12/14 06:37:41;;;;;;;;;;;;;;;5.44;89.04;99790.41;6166933;23;20012;-82
2021/12/14 06:40:16;;;;;;;42.92;24.65;;;;;;;5.41;88.66;99795.28;6165623;23;19958;-83
2021/12/14 06:42:45;;;;;;;42.05;23.58;;;;;;;5.35;89.63;99785.47;6165704;23;20009;-84
2021/12/14 06:45:19;;;;;;;41.95;24.77;;;;;;;5.41;89.58;99792.66;6164875;23;20001;-83
2021/12/14 06:47:47;;;;;;;42.25;25.05;;;;;;;5.20;89.46;99757.25;6166045;23;20009;-81
2021/12/14 06:50:24;;;;;;;45.22;25.20;;;;;;;5.42;89.29;99797.75;6163786;23;20005;-85
2021/12/14 06:53:12;;;;;;;39.67;23.83;;;;;;;5.31;89.21;99771.78;6162918;23;20001;-85
2021/12/14 06:55:38;;;;;;;40.80;24.15;;;;;;;5.44;89.50;99781.69;6162431;23;20066;-85
2021/12/14 06:58:25;;;;;;;44.50;26.08;;;;;;;5.43;89.44;99780.03;6136546;23;20008;-85
2021/12/14 07:01:16;;;;;;;40.17;23.92;;;;;;;5.38;89.09;99763.91;6161888;23;20052;-85
2021/12/14 07:03:51;;;;;;;43.97;24.52;;;;;;;5.28;89.29;99754.50;6161770;23;20001;-84
2021/12/14 07:06:27;;;;;;;45.95;26.60;;;;;;;5.42;89.68;99768.63;6137935;23;20059;-85
2021/12/14 07:08:55;;;;;;;43.13;26.20;;;;;;;5.25;89.20;99727.56;6161270;23;20015;-83
2021/12/14 07:11:24;;;;;;;44.58;25.67;;;;;;;5.26;89.10;99731.88;6163035;23;20039;-86
2021/12/14 07:13:51;;;;;;;47.85;28.15;;;;;;;5.39;89.89;99757.59;6110671;23;20080;-86
2021/12/14 07:16:32;;;;;;;44.13;25.95;;;;;;;5.44;89.94;99769.25;6162193;23;20009;-84
2021/12/14 07:19:01;;;;;;;50.10;26.08;;;;;;;5.43;89.05;99770.28;6139852;23;20017;-85
2021/12/14 07:21:40;;;;;;;48.22;25.45;;;;;;;5.43;89.55;99777.38;6138098;23;20008;-84
2021/12/14 07:24:20;;;;;;;44.72;27.48;;;;;;;5.43;89.24;99774.72;6162597;23;20324;-84
2021/12/14 07:26:48;;;;;;;48.53;26.60;;;;;;;5.36;89.03;99764.09;6161731;23;20015;-84
2021/12/14 07:29:24;;;;;;;47.90;25.50;;;;;;;5.44;89.21;99771.88;6137979;23;20012;-85
2021/12/14 07:31:50;;;;;;;52.40;29.20;;;;;;;5.26;89.52;99755.69;6187083;23;20435;-84
2021/12/14 07:34:21;;;;;;;46.92;28.02;;;;;;;5.38;89.52;99777.13;6188300;23;20032;-81
2021/12/14 07:36:46;;;;;;;43.35;24.70;;;;;;;5.45;88.93;99800.00;6138858;23;20008;-84
2021/12/14 07:39:14;;;;;;;52.35;28.25;;;;;;;5.22;89.11;99762.38;6137336;23;20055;-85
2021/12/14 07:41:43;;;;;;;45.95;24.92;;;;;;;5.47;89.14;99805.09;6163220;23;20060;-83
2021/12/14 07:44:16;;;;;;;41.92;26.08;;;;;;;5.47;89.61;99807.75;6162441;23;19993;-84
2021/12/14 07:47:03;;;;;;;40.38;24.92;;;;;;;5.47;88.91;99821.00;6192323;23;20001;-82
2021/12/14 07:49:36;;;;;;;42.33;26.33;;;;;;;5.38;88.78;99807.06;6165955;23;20009;-83
2021/12/14 07:52:07;;;;;;;47.30;26.85;;;;;;;5.47;88.87;99824.47;6182467;23;20035;-83
2021/12/14 07:54:37;;;;;;;43.85;26.33;;;;;;;5.48;89.50;99828.75;6187167;23;20013;-83
2021/12/14 07:57:14;;;;;;;49.38;26.60;;;;;;;5.48;89.23;99820.81;6185522;23;20013;-84
2021/12/14 07:59:47;;;;;;;42.70;26.15;;;;;;;5.45;89.28;99813.25;6156247;23;20081;-83
2021/12/14 08:02:19;;;;;;;41.80;24.77;;;;;;;5.37;89.40;99810.75;6151318;23;20023;-83
2021/12/14 08:04:52;;;;;;;43.40;24.73;;;;;;;5.50;88.91;99841.81;6174707;23;20004;-85
2021/12/14 08:07:28;;;;;;;45.83;25.15;;;;;;;5.48;89.42;99843.81;6201180;23;20005;-83
2021/12/14 08:10:05;;;;;;;39.08;24.80;;;;;;;5.47;90.10;99850.94;6176533;23;20000;-84
2021/12/14 08:12:52;;;;;;;46.60;26.77;;;;;;;5.45;89.40;99852.97;6200341;23;20093;-83
2021/12/14 08:15:35;;;;;;;42.72;25.30;;;;;;;5.46;89.21;99865.16;6202167;23;20009;-83
2021/12/14 08:18:18;;;;;;;43.58;24.65;;;;;;;5.41;89.60;99864.13;6174355;23;20005;-84
2021/12/14 08:20:53;;;;;;;41.97;25.10;;;;;;;5.47;89.87;99874.75;6203358;23;20043;-82
2021/12/14 08:23:26;;;;;;;45.53;26.60;;;;;;;5.47;90.22;99879.22;6174298;23;20024;-86
2021/12/14 08:25:59;;;;;;;41.55;24.73;;;;;;;5.37;90.02;99863.69;6176633;23;20020;-83
2021/12/14 08:28:25;;;;;;;41.58;24.60;;;;;;;5.41;90.14;99862.28;6151136;23;20048;-83
2021/12/14 08:31:02;;;;;;;43.95;24.77;;;;;;;5.45;90.29;99874.13;6148423;23;20442;-85
2021/12/14 08:33:30;;;;;;;45.08;25.95;;;;;;;5.48;90.00;99878.25;6172906;23;20013;-84
2021/12/14 08:35:59;;;;;;;39.88;25.00;;;;;;;5.48;90.44;99872.94;6150446;23;20005;-84
2021/12/14 08:38:27;;;;;;;40.03;24.35;;;;;;;5.44;90.14;99861.91;6173640;23;20012;-85
2021/12/14 08:40:59;;;;;;;40.03;24.13;;;;;;;5.47;89.80;99871.28;6149554;23;20024;-85
2021/12/14 08:43:32;;;;;;;44.03;24.98;;;;;;;5.49;89.93;99877.22;6149369;23;20009;-84
2021/12/14 08:46:09;;;;;;;41.90;25.27;;;;;;;5.27;90.55;99849.94;6198245;23;20001;-84
2021/12/14 08:48:39;;;;;;;36.00;23.05;;;;;;;5.49;90.13;99878.03;6170947;23;20001;-84
2021/12/14 08:51:13;;;;;;;39.80;24.17;;;;;;;5.47;90.62;99877.41;6122562;23;20012;-84
2021/12/14 08:54:03;;;;;;;38.00;23.15;;;;;;;5.12;90.53;99820.09;6147773;23;20013;-84
2021/12/14 08:56:33;;;;;;;36.13;22.58;;;;;;;5.51;89.88;99885.78;6151436;23;20059;-84
2021/12/14 08:58:59;;;;;;;40.03;23.50;;;;;;;5.47;90.28;99873.94;6145824;23;20036;-84
2021/12/14 09:01:29;;;;;;;40.50;24.27;;;;;;;5.54;90.28;99885.41;6145589;23;20005;-84
2021/12/14 09:04:05;;;;;;;38.25;23.45;;;;;;;5.30;89.64;99849.56;6146713;23;20588;-84
2021/12/14 09:06:35;;;;;;;37.28;21.80;;;;;;;5.42;90.08;99863.91;6148009;23;20324;-84
2021/12/14 09:09:05;;;;;;;37.75;22.45;;;;;;;5.58;89.47;99890.13;6170549;23;20039;-83
2021/12/14 09:11:36;;;;;;;37.63;22.27;;;;;;;5.58;89.93;99887.50;6143367;23;20434;-85
2021/12/14 09:14:04;;;;;;;41.15;23.23;;;;;;;5.60;90.12;99889.94;6168738;23;20016;-84
2021/12/14 09:16:32;;;;;;;40.58;23.17;;;;;;;5.52;89.82;99880.31;6144873;23;20072;-84
2021/12/14 09:19:04;;;;;;;38.35;22.45;;;;;;;5.64;90.61;99901.78;6169835;23;20420;-85
2021/12/14 09:21:34;;;;;;;40.15;22.98;;;;;;;5.53;89.49;99884.59;6170996;23;20024;-86
2021/12/14 09:24:05;;;;;;;38.15;23.55;;;;;;;5.66;90.43;99891.81;6121633;23;20313;-85
2021/12/14 09:26:34;;;;;;;39.47;23.55;;;;;;;5.68;89.97;99879.22;6170117;23;20008;-84
2021/12/14 09:29:01;;;;;;;37.25;21.52;;;;;;;5.67;89.80;99882.88;6145314;23;20059;-85
2021/12/14 09:31:36;;;;;;;41.03;23.65;;;;;;;5.49;89.69;99864.81;6170830;23;20009;-85
2021/12/14 09:34:04;;;;;;;37.35;21.40;;;;;;;5.68;89.83;99889.81;6150864;23;20060;-85
2021/12/14 09:36:30;;;;;;;35.58;21.58;;;;;;;5.51;89.95;99868.06;6180546;23;20009;-85
2021/12/14 09:39:07;;;;;;;35.50;21.13;;;;;;;5.71;89.90;99889.44;6143103;23;20033;-84
2021/12/14 09:41:33;;;;;;;36.10;20.80;;;;;;;5.66;90.05;99871.47;6193561;23;20081;-85
2021/12/14 09:48:09;;;;;;;36.80;21.02;;;;;;;5.75;89.88;99894.16;6210605;23;20020;-85
2021/12/14 10:07:47;;;;;;;33.38;18.83;;;;;;;5.75;91.00;99856.25;6207941;23;20015;-84
2021/12/14 10:10:14;;;;;;;35.70;18.98;;;;;;;5.28;90.46;99790.72;6184700;23;20038;-86
2021/12/14 10:12:50;;;;;;;34.75;19.67;;;;;;;5.24;90.45;99773.59;6185196;23;20036;-85
2021/12/14 10:15:36;;;;;;;29.27;16.42;;;;;;;5.62;90.89;99827.84;6210156;23;20001;-86
2021/12/14 10:18:17;;;;;;;28.98;17.15;;;;;;;5.43;90.04;99787.97;6159749;23;20043;-86
2021/12/14 10:20:52;;;;;;;37.33;18.65;;;;;;;5.82;90.26;99850.00;6184687;23;20044;-86
2021/12/14 10:23:20;;;;;;;28.85;17.27;;;;;;;5.70;89.75;99830.34;6184867;23;20064;-85
2021/12/14 10:25:46;;;;;;;34.63;16.70;;;;;;;5.39;90.30;99790.19;6158872;23;20012;-86
2021/12/14 10:28:12;;;;;;;28.10;16.80;;;;;;;5.44;90.09;99782.47;6210193;23;20004;-85
2021/12/14 10:30:45;;;;;;;27.13;16.33;;;;;;;5.29;90.38;99779.09;6211041;23;20021;-86
2021/12/14 10:33:12;;;;;;;26.40;15.95;;;;;;;5.81;89.54;99842.25;6159540;23;20024;-85
2021/12/14 10:35:48;;;;;;;32.38;17.77;;;;;;;5.57;90.61;99800.31;6182948;23;20028;-87
2021/12/14 10:38:23;;;;;;;;;;;;;;;5.92;89.87;99865.56;6184194;23;20001;-85
2021/12/14 10:43:41;;;;;;;30.55;15.48;;;;;;;5.39;89.66;99806.09;6205220;23;20060;-84
2021/12/14 10:46:13;;;;;;;26.45;14.50;;;;;;;5.70;90.10;99845.44;6177691;23;20012;-85
2021/12/14 10:48:44;;;;;;;24.38;13.98;;;;;;;5.54;90.06;99816.56;6178964;23;20009;-85
2021/12/14 10:51:13;;;;;;;27.40;16.02;;;;;;;5.48;89.76;99789.06;6155248;23;20063;-85
2021/12/14 10:53:43;;;;;;;24.25;14.00;;;;;;;5.35;89.46;99759.00;6204546;23;20001;-85
2021/12/14 10:56:39;;;;;;;30.55;14.10;;;;;;;5.96;89.80;99857.03;6154773;23;20020;-85
2021/12/14 10:59:08;;;;;;;25.95;15.60;;;;;;;5.57;89.60;99787.88;6174395;23;20047;-85
2021/12/14 11:01:35;;;;;;;28.08;15.45;;;;;;;5.40;90.09;99759.22;6150855;23;20012;-85
2021/12/14 11:04:10;;;;;;;26.73;15.43;;;;;;;5.74;89.49;99814.88;6175227;23;20016;-85
2021/12/14 11:06:42;;;;;;;25.58;14.25;;;;;;;5.56;89.07;99783.59;6179788;23;20072;-86
2021/12/14 11:11:37;;;;;;;28.67;15.02;;;;;;;5.98;90.10;99849.72;6218682;23;20005;-86
2021/12/14 11:14:09;;;;;;;25.83;15.77;;;;;;;5.61;89.44;99789.16;6209403;23;20058;-86
2021/12/14 11:19:38;;;;;;;29.52;15.82;;;;;;;6.01;89.88;99857.28;6167642;23;20023;-86
2021/12/14 11:22:09;;;;;;;26.08;15.45;;;;;;;6.02;89.25;99858.09;6185102;23;20406;-86
2021/12/14 11:24:37;;;;;;;30.17;16.08;;;;;;;6.03;89.48;99849.13;6184387;23;20020;-86
2021/12/14 11:27:34;;;;;;;22.85;14.43;;;;;;;6.03;90.21;99851.78;6208573;23;20005;-86
2021/12/14 11:30:20;;;;;;;24.23;14.40;;;;;;;5.67;89.89;99798.97;6135687;23;20009;-86
2021/12/14 11:33:05;;;;;;;;;;;;;;;6.03;89.57;99846.47;6136347;23;19993;-86
2021/12/14 11:35:32;;;;;;;23.95;13.48;;;;;;;5.59;89.67;99769.94;6183466;23;19911;-86
2021/12/14 11:38:01;;;;;;;22.25;13.90;;;;;;;5.43;90.00;99737.69;6183999;23;20009;-86
2021/12/14 11:40:30;;;;;;;23.58;12.85;;;;;;;5.41;89.29;99740.53;6210069;23;20009;-86
2021/12/14 11:43:12;;;;;;;20.48;13.10;;;;;;;5.67;89.53;99780.41;6160332;23;20065;-86
2021/12/14 11:45:41;;;;;;;22.30;13.45;;;;;;;5.62;90.03;99758.97;6153260;23;20025;-86
2021/12/14 11:48:08;;;;;;;19.55;12.20;;;;;;;5.43;89.66;99730.56;6154801;23;20093;-85
2021/12/14 11:50:44;;;;;;;18.33;11.93;;;;;;;6.07;89.64;99825.72;6180909;23;20101;-85
2021/12/14 11:53:11;;;;;;;;;;;;;;;6.07;89.17;99825.72;6204633;23;20036;-85
2021/12/14 11:55:57;;;;;;;21.98;12.60;;;;;;;6.05;89.82;99820.59;6178422;23;19892;-85
2021/12/14 11:58:43;;;;;;;21.63;13.20;;;;;;;5.52;89.21;99739.16;6204491;23;19997;-85
2021/12/14 12:01:30;;;;;;;21.60;13.55;;;;;;;6.07;89.71;99825.72;6203471;23;20424;-85
2021/12/14 12:04:07;;;;;;;22.63;13.05;;;;;;;6.08;89.85;99817.56;6204511;23;20012;-85
2021/12/14 12:09:30;;;;;;;25.42;15.05;;;;;;;6.13;89.95;99819.63;6207379;23;20007;-85
2021/12/14 12:12:04;;;;;;;24.60;14.57;;;;;;;6.15;88.96;99830.84;6206954;23;20057;-85
2021/12/14 12:14:36;;;;;;;25.33;13.73;;;;;;;6.18;89.56;99838.44;6181333;23;20096;-85
2021/12/14 12:17:40;;;;;;;20.95;13.48;;;;;;;6.17;88.54;99831.47;6179614;23;20004;-85
2021/12/14 12:20:29;;;;;;;25.35;13.88;;;;;;;6.19;88.82;99824.97;6179467;23;20001;-85
2021/12/14 12:23:06;;;;;;;26.85;14.05;;;;;;;6.18;88.90;99825.19;6180154;23;20009;-85
2021/12/14 12:25:34;;;;;;;21.83;13.75;;;;;;;6.17;89.34;99816.41;6205923;23;19996;-85
2021/12/14 12:28:20;;;;;;;18.73;12.27;;;;;;;6.17;89.12;99818.22;6154214;23;20009;-85
2021/12/14 12:30:51;;;;;;;21.50;13.77;;;;;;;6.21;89.06;99822.13;6178485;23;20024;-85
2021/12/14 12:33:33;;;;;;;21.33;13.85;;;;;;;5.81;88.38;99752.19;6153704;23;20045;-85
2021/12/14 12:36:37;;;;;;;20.17;12.85;;;;;;;6.18;88.82;99819.88;6204757;23;20009;-85
2021/12/14 12:39:08;;;;;;;21.77;14.60;;;;;;;6.19;88.96;99821.50;6044384;23;20011;-84
2021/12/14 12:41:47;;;;;;;22.95;13.25;;;;;;;5.90;88.88;99773.03;6172357;23;20094;-84
2021/12/14 12:44:18;;;;;;;21.00;12.27;;;;;;;6.25;88.25;99824.19;6165072;23;20084;-86
2021/12/14 12:46:56;;;;;;;21.70;14.85;;;;;;;6.27;88.20;99818.69;6188719;23;20060;-85
2021/12/14 12:49:27;;;;;;;22.70;13.98;;;;;;;6.05;88.74;99786.97;6162683;23;20325;-84
2021/12/14 12:51:58;;;;;;;22.23;13.27;;;;;;;6.30;88.58;99805.84;6162841;23;20001;-84
2021/12/14 12:54:23;;;;;;;23.58;14.18;;;;;;;6.32;88.75;99814.44;6163388;23;20088;-84
2021/12/14 12:57:19;;;;;;;18.83;14.18;;;;;;;6.06;88.33;99777.19;6194120;23;20005;-86
2021/12/14 12:59:54;;;;;;;21.00;12.95;;;;;;;5.97;88.78;99773.06;6155226;23;20440;-87
2021/12/14 13:02:35;;;;;;;22.40;14.90;;;;;;;5.99;88.60;99765.75;6149835;23;20017;-85
2021/12/14 13:05:16;;;;;;;21.60;14.82;;;;;;;5.53;88.60;99690.47;6144850;23;20338;-85